Allendale, MI (49401)

06:20 EDT le 21 octobre 2014 (GMT -0400)
Tallmadge Township | Change Station
CLOSE
Current Station
Stations météorologiques personnelles
Location: Marne, MI
Altitude: 682 ft
Stations météo à proximité

Alt. 682 ft 42.99 °N, 85.81 °W | Updated 4 minutes ago

Couvert
Couvert
46.2 ° F
Paraît 43 ° F
N
7.0
Vent Variable Vent de NO
Gusts 10.0 mph

Aujourd'hui
Haut(e) -- | Bas -- ° F
--% Risque de précip.
Hier
Haut(e) -- | Bas -- ° F
Precip. -- pouce
8:04 AM 6:51 PM
Lune descendante, 6% visible
Pression 30.01 pouce
Visibilité 10.0 Miles terrestres
Nuages Nuages épars 4900 ft
Couvert 6000 ft
Refroidissement éolien 43 ° F
Point de rosée 42 ° F
Humidité 87%
Précipitations 0.00 pouce
Profondeur de la couche neigeuse Non disponible.
UV 0 sur 12
Pollen 1.10 sur 12
Ozone Bon
PM2.5 Bon
Flu Activity Sporadic
METAR KBIV 210953Z AUTO 34005KT 10SM -RA SCT049 OVC060 09/06 A3001 RMK AO2 RAB26 SLPNO P0000 T00890056

More Conditions Fewer Conditions

Pression 30.01 pouce
Visibilité 10.0 Miles terrestres
Nuages Nuages épars 4900 ft
Couvert 6000 ft
Refroidissement éolien 43 ° F
Point de rosée 42 ° F
Humidité 87%
Précipitations 0.00 pouce
Profondeur de la couche neigeuse Non disponible.
UV 0 sur 12
Pollen 1.10 sur 12
Ozone Bon
PM2.5 Bon
Flu Activity Sporadic
METAR KBIV 210953Z AUTO 34005KT 10SM -RA SCT049 OVC060 09/06 A3001 RMK AO2 RAB26 SLPNO P0000 T00890056

More Conditions Fewer Conditions

10-Day Weather Forecast

Almanac

Astronomie

Oct. 21, 2014 Lever Coucher
Temps réel 08:04 EDT 18:51 EDT
Crépuscule civil 07:35 EDT 19:20 EDT
Crépuscule nautique 07:02 EDT 19:53 EDT
Crépuscule astronomique 06:29 EDT 20:26 EDT
Lune 05:44 EDT 17:47 EDT
Durée de lumière visible 11h 44m
Longueur du jour
10h 47m
Tomorrow will be 2m 45s shorter.
Lune descendante, 6% of the Moon is Illuminated
Aujourd'hui
Lune descendante
Oct 23
Nouveau
Oct 30
Premier quartier
Nov 6
Pleine lune
Nov 14
Dernier quartier

Extrêmes aujourd'hui

State Highs State Lows

Community

WunderPhotos

Upload Photos

1,763,625 Photos téléchargées !

Nearby

Qualité de l'air

  Qualité de l'air Indice de la qualité de l'air Polluant
Hier Bon
PM2.5
Hier Bon
OZONE
Actuel Bon
PM2.5
Actuel Bon
OZONE
mardi Bon
PM2.5
mercredi Bon
PM2.5
jeudi Bon
PM2.5
vendredi Bon
PM2.5
samedi Bon
PM2.5

Épaisseur de neige

Station Depth Altitude
Pas de nouvelles chutes de neige

Activité sismique

Ville Distance Mag. Time & Date
No recent earthquake activity has been reported nearby.
Minimum magnitude displayed is 2.5.

Températures des eaux côtières

Lieu Température
Holland, MI 54.0 ° F

Stations météo à proximité